Time;durP1;ratioP1;P1;durP2;ratioP2;P2;SDS_P1;SDS_P2;PMS_P1;PMS_P2;Temp;Humidity;BMP_temperature;BMP_pressure;BME280_temperature;BME280_humidity;BME280_pressure;Samples;Min_cycle;Max_cycle;Signal;HPM_P1;HPM_P2
2022/04/27 00:02:14;;;;;;;38.53;9.70;;;9.10;40.50;;;;;;5006368;28;20464;-62
2022/04/27 00:04:40;;;;;;;39.77;8.93;;;9.10;40.50;;;;;;5011161;28;20546;-60
2022/04/27 00:07:09;;;;;;;37.70;8.53;;;9.10;40.50;;;;;;5010558;28;20491;-61
2022/04/27 00:09:35;;;;;;;37.13;9.13;;;9.10;40.40;;;;;;5002996;28;20485;-60
2022/04/27 00:12:02;;;;;;;38.83;9.67;;;9.10;40.40;;;;;;5008114;28;20464;-61
2022/04/27 00:14:29;;;;;;;38.20;9.10;;;9.20;40.30;;;;;;5009205;28;20845;-61
2022/04/27 00:16:57;;;;;;;37.77;9.47;;;9.30;40.40;;;;;;5008038;28;20997;-60
2022/04/27 00:19:24;;;;;;;35.87;8.93;;;9.20;40.20;;;;;;5018312;28;20491;-61
2022/04/27 00:21:50;;;;;;;36.40;8.60;;;9.20;40.10;;;;;;5007582;28;20486;-61
2022/04/27 00:24:19;;;;;;;36.93;9.33;;;9.20;40.10;;;;;;5007528;28;20464;-60
2022/04/27 00:26:46;;;;;;;37.03;9.47;;;9.20;40.10;;;;;;5008484;28;20480;-61
2022/04/27 00:29:12;;;;;;;38.70;9.40;;;9.20;40.20;;;;;;5007481;28;21064;-61
2022/04/27 00:31:40;;;;;;;38.70;9.10;;;9.20;40.10;;;;;;5008859;28;20502;-61
2022/04/27 00:34:07;;;;;;;39.13;10.17;;;9.20;40.20;;;;;;5023691;28;20455;-61
2022/04/27 00:36:35;;;;;;;38.30;10.67;;;9.20;40.40;;;;;;5012914;28;20471;-62
2022/04/27 00:39:02;;;;;;;39.47;10.17;;;9.20;40.40;;;;;;5014458;28;20482;-60
2022/04/27 00:41:31;;;;;;;39.10;10.57;;;9.30;40.40;;;;;;5010473;28;20459;-60
2022/04/27 00:43:57;;;;;;;37.70;9.10;;;9.30;40.50;;;;;;5010199;28;20457;-61
2022/04/27 00:46:24;;;;;;;38.43;10.43;;;9.30;40.60;;;;;;5006693;28;20830;-61
2022/04/27 00:48:51;;;;;;;38.10;9.50;;;9.30;40.60;;;;;;5014725;28;20486;-60
2022/04/27 00:51:20;;;;;;;36.43;9.00;;;9.20;40.60;;;;;;5009319;28;20472;-60
2022/04/27 00:53:48;;;;;;;38.73;10.43;;;9.20;40.50;;;;;;5029493;28;20451;-61
2022/04/27 00:56:17;;;;;;;38.80;10.60;;;9.20;40.60;;;;;;5007025;28;20880;-61
2022/04/27 00:58:45;;;;;;;40.37;10.80;;;9.20;41.00;;;;;;5004803;28;20542;-61
2022/04/27 01:01:12;;;;;;;41.00;11.70;;;9.20;40.70;;;;;;5004512;28;20479;-61
2022/04/27 01:03:40;;;;;;;40.27;10.77;;;9.20;40.70;;;;;;5007625;28;20577;-61
2022/04/27 01:06:07;;;;;;;38.07;10.27;;;9.20;40.80;;;;;;5007616;28;20486;-61
2022/04/27 01:08:34;;;;;;;40.00;11.70;;;9.20;40.70;;;;;;5008483;28;21021;-61
2022/04/27 01:11:02;;;;;;;39.30;11.37;;;9.20;40.80;;;;;;5006718;28;20463;-61
2022/04/27 01:13:29;;;;;;;43.33;12.70;;;9.30;41.00;;;;;;5011005;28;20467;-62
2022/04/27 01:15:58;;;;;;;39.83;11.80;;;9.20;41.00;;;;;;5001431;28;20491;-61
2022/04/27 01:18:24;;;;;;;40.10;11.43;;;9.20;41.40;;;;;;5019756;28;21047;-62
2022/04/27 01:20:52;;;;;;;40.67;12.23;;;9.20;41.40;;;;;;5009068;28;20468;-60
2022/04/27 01:23:19;;;;;;;39.87;11.47;;;9.30;41.30;;;;;;5009151;28;20460;-60
2022/04/27 01:25:48;;;;;;;40.47;12.00;;;9.30;41.10;;;;;;5007604;28;20475;-61
2022/04/27 01:28:15;;;;;;;40.03;11.30;;;9.30;41.10;;;;;;5005090;28;20488;-61
2022/04/27 01:30:42;;;;;;;38.90;11.43;;;9.30;41.40;;;;;;5005524;28;20467;-61
2022/04/27 01:33:09;;;;;;;40.97;11.80;;;9.30;41.30;;;;;;5003499;28;20471;-61
2022/04/27 01:35:36;;;;;;;43.67;13.17;;;9.30;41.50;;;;;;5006912;28;20455;-61
2022/04/27 01:38:05;;;;;;;40.33;12.43;;;9.30;41.60;;;;;;5008362;28;20479;-60
2022/04/27 01:40:31;;;;;;;43.63;14.03;;;9.30;41.60;;;;;;5003448;28;20456;-62
2022/04/27 01:42:58;;;;;;;41.37;12.30;;;9.30;41.60;;;;;;5003113;28;20467;-62
2022/04/27 01:45:25;;;;;;;43.30;12.77;;;9.30;41.70;;;;;;5007233;28;20460;-61
2022/04/27 01:47:53;;;;;;;40.60;11.77;;;9.30;41.90;;;;;;5000705;28;20494;-61
2022/04/27 01:50:20;;;;;;;40.40;11.30;;;9.30;41.80;;;;;;5009449;28;20518;-60
2022/04/27 01:55:33;;;;;;;40.03;12.33;;;9.30;41.80;;;;;;5005289;28;20958;-61
2022/04/27 01:57:59;;;;;;;41.10;13.30;;;9.30;42.00;;;;;;5008125;28;20475;-61
2022/04/27 02:00:26;;;;;;;40.73;12.60;;;9.30;42.70;;;;;;5007989;28;20467;-60
2022/04/27 02:02:54;;;;;;;42.87;12.87;;;9.30;42.30;;;;;;4999742;28;20459;-61
2022/04/27 02:05:21;;;;;;;44.13;13.33;;;9.20;42.30;;;;;;5005466;28;21124;-60
2022/04/27 02:07:48;;;;;;;42.20;12.13;;;9.20;42.10;;;;;;5005555;28;20488;-60
2022/04/27 02:10:15;;;;;;;39.83;12.50;;;9.20;42.20;;;;;;5007241;28;20466;-61
2022/04/27 02:12:43;;;;;;;41.00;12.10;;;9.20;42.40;;;;;;5003478;28;20468;-61
2022/04/27 02:15:10;;;;;;;42.07;13.27;;;9.20;42.30;;;;;;5006748;28;20838;-60
2022/04/27 02:17:37;;;;;;;42.97;13.33;;;9.20;42.30;;;;;;5006537;28;21386;-61
2022/04/27 02:20:05;;;;;;;41.63;12.67;;;9.20;42.30;;;;;;5014172;28;20466;-60
2022/04/27 02:22:33;;;;;;;41.77;12.80;;;9.20;42.30;;;;;;5016476;28;20517;-61
2022/04/27 02:25:00;;;;;;;43.63;14.00;;;9.20;42.10;;;;;;5012395;28;20490;-60
2022/04/27 02:27:27;;;;;;;42.07;13.23;;;9.20;42.00;;;;;;5005071;28;20545;-60
2022/04/27 02:29:56;;;;;;;43.30;13.13;;;9.20;41.90;;;;;;5007528;28;20508;-61
2022/04/27 02:32:23;;;;;;;44.00;13.97;;;9.30;41.80;;;;;;5004499;28;20911;-62
2022/04/27 02:34:51;;;;;;;43.70;13.73;;;9.30;41.90;;;;;;5008657;28;20459;-61
2022/04/27 02:37:17;;;;;;;44.70;14.47;;;9.40;41.80;;;;;;5006609;28;20483;-61
2022/04/27 02:39:44;;;;;;;47.00;14.47;;;9.40;41.70;;;;;;5007641;28;20480;-61
2022/04/27 02:42:11;;;;;;;43.00;12.97;;;9.50;41.70;;;;;;5009563;28;20524;-61
2022/04/27 02:44:38;;;;;;;42.40;12.80;;;9.50;41.60;;;;;;5006606;28;20463;-60
2022/04/27 02:47:07;;;;;;;43.20;13.50;;;9.50;41.40;;;;;;5002721;28;21075;-61
2022/04/27 02:52:17;;;;;;;42.50;13.50;;;9.60;41.20;;;;;;5003636;28;20467;-60
2022/04/27 02:54:44;;;;;;;40.70;12.10;;;9.60;41.10;;;;;;5011556;28;20465;-60
2022/04/27 02:57:11;;;;;;;40.60;12.90;;;9.60;41.00;;;;;;5004894;28;20846;-61
2022/04/27 02:59:38;;;;;;;41.43;13.00;;;9.60;40.90;;;;;;5006791;28;20491;-61
2022/04/27 03:02:06;;;;;;;40.97;13.10;;;9.60;40.80;;;;;;4996367;28;20476;-61
2022/04/27 03:04:33;;;;;;;41.00;12.77;;;9.60;40.70;;;;;;5008618;28;20464;-61
2022/04/27 03:07:00;;;;;;;41.43;14.00;;;9.60;40.70;;;;;;4999607;28;20479;-61
2022/04/27 03:09:27;;;;;;;41.97;12.77;;;9.60;40.70;;;;;;5004536;28;20487;-61
2022/04/27 03:11:54;;;;;;;40.90;12.13;;;9.50;40.60;;;;;;5012206;28;21001;-61
2022/04/27 03:14:21;;;;;;;40.93;12.97;;;9.50;40.60;;;;;;5002063;28;20460;-61
2022/04/27 03:16:47;;;;;;;45.80;13.60;;;9.50;40.60;;;;;;5011195;28;21155;-60
2022/04/27 03:19:16;;;;;;;42.67;13.30;;;9.50;40.60;;;;;;5007281;28;20531;-61
2022/04/27 03:21:43;;;;;;;40.30;13.07;;;9.50;41.00;;;;;;5001482;28;20464;-61
2022/04/27 03:24:09;;;;;;;42.53;14.10;;;9.50;41.30;;;;;;5008120;28;20467;-61
2022/04/27 03:26:36;;;;;;;44.10;14.00;;;9.40;41.00;;;;;;5018615;28;20482;-60
2022/04/27 03:29:04;;;;;;;48.20;15.83;;;9.40;41.20;;;;;;5009153;28;20487;-61
2022/04/27 03:31:31;;;;;;;44.67;14.77;;;9.30;41.40;;;;;;5009823;28;21037;-60
2022/04/27 03:33:58;;;;;;;41.93;13.67;;;9.40;41.60;;;;;;5016762;28;20467;-62
2022/04/27 03:36:26;;;;;;;44.23;13.60;;;9.30;41.50;;;;;;5010988;28;20539;-61
2022/04/27 03:38:53;;;;;;;43.87;15.10;;;9.30;41.60;;;;;;5009621;28;20494;-60
2022/04/27 03:41:22;;;;;;;46.33;16.27;;;9.30;41.50;;;;;;5016294;28;20474;-62
2022/04/27 03:43:50;;;;;;;43.93;14.90;;;9.30;41.60;;;;;;5005871;28;20969;-64
2022/04/27 03:46:19;;;;;;;47.37;16.33;;;9.30;41.60;;;;;;5006691;28;20558;-60
2022/04/27 03:48:46;;;;;;;43.33;14.13;;;9.30;41.60;;;;;;5008449;28;20483;-60
2022/04/27 03:51:13;;;;;;;42.67;13.90;;;9.30;41.60;;;;;;5005547;28;20464;-60
2022/04/27 03:53:41;;;;;;;42.17;14.77;;;9.30;42.20;;;;;;5005294;28;22426;-60
2022/04/27 03:56:08;;;;;;;44.93;13.77;;;9.30;41.60;;;;;;5001452;28;20554;-60
2022/04/27 03:58:35;;;;;;;45.57;15.23;;;9.30;41.70;;;;;;5008301;28;20511;-61
2022/04/27 04:01:01;;;;;;;43.90;15.63;;;9.30;41.60;;;;;;5007041;28;20479;-60
2022/04/27 04:03:28;;;;;;;43.93;15.30;;;9.30;41.60;;;;;;4994873;28;20459;-61
2022/04/27 04:05:55;;;;;;;44.43;16.33;;;9.30;41.90;;;;;;5007900;28;20471;-60
2022/04/27 04:08:21;;;;;;;44.73;14.50;;;9.30;41.70;;;;;;5006433;28;20480;-60
2022/04/27 04:10:50;;;;;;;45.80;16.40;;;9.30;41.80;;;;;;5006033;28;21103;-60
2022/04/27 04:13:16;;;;;;;46.27;15.57;;;9.30;41.80;;;;;;5011350;28;20550;-59
2022/04/27 04:15:43;;;;;;;46.70;16.37;;;9.30;41.70;;;;;;5007876;28;21019;-59
2022/04/27 04:18:10;;;;;;;45.37;15.40;;;9.20;42.00;;;;;;5018808;28;20484;-60
2022/04/27 04:20:36;;;;;;;45.57;14.93;;;9.20;42.20;;;;;;5006066;28;20456;-59
2022/04/27 04:23:03;;;;;;;44.87;14.70;;;9.20;42.30;;;;;;5007513;28;20470;-60
2022/04/27 04:30:57;;;;;;;44.53;14.60;;;9.30;42.40;;;;;;5010455;28;20470;-60
2022/04/27 04:33:24;;;;;;;45.20;14.90;;;9.30;42.80;;;;;;5006060;28;20819;-60
2022/04/27 04:35:52;;;;;;;46.60;14.87;;;9.20;42.60;;;;;;5005905;28;20463;-60
2022/04/27 04:38:18;;;;;;;45.37;16.10;;;9.20;42.90;;;;;;5010159;28;20475;-59
2022/04/27 04:40:45;;;;;;;46.67;17.00;;;9.30;42.80;;;;;;5005935;28;20482;-60
2022/04/27 04:43:13;;;;;;;52.10;17.17;;;9.30;42.70;;;;;;5004751;28;21190;-60
2022/04/27 04:45:40;;;;;;;45.53;15.87;;;9.30;42.50;;;;;;5010672;28;20472;-60
2022/04/27 04:48:08;;;;;;;44.90;16.10;;;9.40;42.40;;;;;;5017549;28;20483;-60
2022/04/27 04:50:35;;;;;;;45.50;14.77;;;9.30;42.40;;;;;;5010323;28;20982;-60
2022/04/27 04:53:01;;;;;;;45.80;15.07;;;9.40;42.30;;;;;;5009551;28;20456;-60
2022/04/27 04:55:29;;;;;;;45.23;16.00;;;9.40;42.10;;;;;;5008159;28;20464;-60
2022/04/27 04:57:56;;;;;;;47.67;18.10;;;9.50;42.20;;;;;;5003418;28;20483;-60
2022/04/27 05:00:24;;;;;;;44.83;16.07;;;9.50;42.20;;;;;;5009510;28;20522;-60
2022/04/27 05:02:51;;;;;;;45.37;15.57;;;9.50;42.10;;;;;;5007091;28;20463;-60
2022/04/27 05:05:17;;;;;;;45.00;15.73;;;9.60;42.00;;;;;;5007783;28;21095;-60
2022/04/27 05:07:44;;;;;;;43.37;14.80;;;9.60;41.90;;;;;;5005922;28;20491;-61
2022/04/27 05:10:11;;;;;;;46.00;15.40;;;9.70;41.90;;;;;;5009035;28;20464;-60
2022/04/27 05:12:38;;;;;;;44.13;15.97;;;9.70;42.00;;;;;;5014136;28;20470;-60
2022/04/27 05:15:06;;;;;;;47.70;15.50;;;9.70;41.90;;;;;;5016557;28;20487;-61
2022/04/27 05:17:34;;;;;;;45.27;16.27;;;9.80;41.80;;;;;;5006558;28;20459;-60
2022/04/27 05:20:01;;;;;;;43.40;15.07;;;9.90;41.90;;;;;;5006137;28;20463;-60
2022/04/27 05:22:34;;;;;;;44.20;15.10;;;10.00;41.70;;;;;;5011229;28;20460;-60
2022/04/27 05:25:03;;;;;;;43.23;15.57;;;10.10;41.80;;;;;;5007931;28;20461;-60
2022/04/27 05:27:30;;;;;;;42.30;13.60;;;10.30;41.70;;;;;;5003910;28;20900;-61
2022/04/27 05:32:43;;;;;;;40.80;12.70;;;11.20;39.70;;;;;;5010550;28;20458;-60
2022/04/27 05:35:09;;;;;;;42.50;14.20;;;11.60;38.60;;;;;;5005850;28;20536;-61
2022/04/27 05:37:37;;;;;;;45.03;15.60;;;11.80;37.80;;;;;;5007193;28;20466;-60
2022/04/27 05:40:05;;;;;;;46.90;17.40;;;12.00;37.00;;;;;;5003645;28;20460;-60
2022/04/27 05:42:32;;;;;;;45.30;17.03;;;12.40;36.70;;;;;;5006849;28;20459;-61
2022/04/27 05:44:59;;;;;;;48.10;18.40;;;13.80;33.30;;;;;;5008173;28;20467;-60
2022/04/27 05:47:26;;;;;;;45.47;18.43;;;14.50;30.90;;;;;;5011357;28;20482;-60
2022/04/27 05:49:54;;;;;;;48.13;20.03;;;14.50;28.70;;;;;;5012223;28;20486;-60
2022/04/27 05:52:21;;;;;;;46.90;20.00;;;14.60;29.20;;;;;;5008421;28;20464;-59
2022/04/27 05:54:48;;;;;;;47.70;20.00;;;14.80;29.10;;;;;;5008159;28;20459;-60
2022/04/27 05:57:14;;;;;;;45.13;17.20;;;14.90;27.40;;;;;;5007568;28;21044;-59
2022/04/27 05:59:42;;;;;;;43.80;16.90;;;15.10;26.90;;;;;;5007738;28;20487;-59
2022/04/27 06:02:09;;;;;;;43.20;16.60;;;15.40;26.30;;;;;;5007127;28;20565;-59
2022/04/27 06:04:35;;;;;;;42.67;16.27;;;15.80;25.80;;;;;;5008189;28;20460;-59
2022/04/27 06:07:06;;;;;;;41.80;16.40;;;16.20;25.30;;;;;;5008840;28;20487;-60
2022/04/27 06:09:33;;;;;;;40.97;14.93;;;16.30;23.70;;;;;;5005839;28;21148;-60
2022/04/27 06:12:00;;;;;;;40.57;14.10;;;16.30;23.60;;;;;;5013274;28;20494;-61
2022/04/27 06:14:27;;;;;;;40.50;15.07;;;16.20;23.40;;;;;;5006880;28;21009;-60
2022/04/27 06:16:54;;;;;;;42.87;15.03;;;16.00;23.10;;;;;;5001796;28;20470;-60
2022/04/27 06:19:20;;;;;;;41.07;14.13;;;16.00;23.20;;;;;;5013479;28;20498;-60
2022/04/27 06:21:47;;;;;;;40.00;15.00;;;16.10;22.40;;;;;;5013601;28;20837;-60
2022/04/27 06:24:16;;;;;;;38.47;14.20;;;16.30;21.50;;;;;;5014607;28;20467;-60
2022/04/27 06:26:42;;;;;;;39.40;13.70;;;16.70;21.40;;;;;;5001709;28;20467;-61
2022/04/27 06:29:10;;;;;;;39.70;13.97;;;18.30;21.00;;;;;;5007192;28;20851;-61
2022/04/27 06:31:36;;;;;;;34.43;11.87;;;21.00;17.30;;;;;;5008430;28;20523;-60
2022/04/27 06:34:03;;;;;;;36.43;13.80;;;21.60;13.30;;;;;;5010198;28;20471;-61
2022/04/27 06:36:30;;;;;;;36.83;12.90;;;22.40;13.20;;;;;;5006795;28;20460;-61
2022/04/27 06:38:56;;;;;;;34.70;12.73;;;23.40;11.40;;;;;;5007486;28;20471;-61
2022/04/27 06:41:25;;;;;;;32.90;11.83;;;24.80;8.80;;;;;;5007634;28;20468;-61
2022/04/27 06:43:51;;;;;;;33.23;12.37;;;25.80;7.40;;;;;;5011935;28;20469;-60
2022/04/27 06:46:19;;;;;;;33.17;12.30;;;25.50;5.00;;;;;;5001748;28;20479;-60
2022/04/27 06:48:46;;;;;;;33.17;12.00;;;24.70;6.40;;;;;;5007358;28;20483;-60
2022/04/27 06:51:12;;;;;;;33.90;13.03;;;23.90;7.60;;;;;;5006598;28;20826;-60
2022/04/27 06:53:39;;;;;;;35.33;12.90;;;23.30;6.70;;;;;;5007637;28;20717;-60
2022/04/27 06:56:06;;;;;;;34.07;12.60;;;22.60;8.10;;;;;;5006299;28;20468;-60
2022/04/27 06:58:35;;;;;;;34.00;12.90;;;22.00;9.30;;;;;;5004627;28;20483;-60
2022/04/27 07:01:04;;;;;;;35.50;12.83;;;21.40;10.20;;;;;;5007649;28;20595;-60
2022/04/27 07:03:33;;;;;;;33.10;11.30;;;20.90;11.00;;;;;;5006009;28;20459;-60
2022/04/27 07:06:00;;;;;;;33.17;11.67;;;20.60;11.10;;;;;;5015757;28;20460;-60
2022/04/27 07:08:28;;;;;;;34.10;11.80;;;21.60;10.50;;;;;;5006759;28;20491;-60
2022/04/27 07:10:55;;;;;;;32.70;11.20;;;22.40;9.90;;;;;;5011420;28;20459;-60
2022/04/27 07:13:22;;;;;;;32.90;11.03;;;23.40;7.90;;;;;;5012105;28;20838;-60
2022/04/27 07:15:51;;;;;;;32.70;11.27;;;22.90;7.80;;;;;;5001716;28;20469;-61
2022/04/27 07:18:18;;;;;;;33.90;11.20;;;22.20;7.90;;;;;;5015753;28;20473;-60
2022/04/27 07:20:45;;;;;;;32.83;11.37;;;21.50;8.80;;;;;;5010609;28;20463;-61
2022/04/27 07:23:12;;;;;;;34.40;12.43;;;21.40;8.90;;;;;;5010935;28;20452;-61
2022/04/27 07:25:38;;;;;;;33.50;11.93;;;21.10;9.80;;;;;;5018733;28;20466;-60
2022/04/27 07:28:05;;;;;;;33.30;11.50;;;20.80;10.70;;;;;;5011559;28;20483;-59
2022/04/27 07:30:32;;;;;;;33.00;10.63;;;21.00;10.70;;;;;;5011354;28;20460;-60
2022/04/27 07:33:01;;;;;;;32.93;10.47;;;23.30;10.40;;;;;;5010818;28;20918;-59
2022/04/27 07:35:27;;;;;;;33.87;11.07;;;27.90;5.70;;;;;;5010321;28;20475;-59
2022/04/27 07:37:54;;;;;;;30.50;10.37;;;30.00;1.00;;;;;;5009339;28;21211;-60
2022/04/27 07:40:21;;;;;;;32.17;11.13;;;29.50;1.00;;;;;;5004626;28;20470;-60
2022/04/27 07:42:48;;;;;;;30.60;11.00;;;28.30;1.00;;;;;;5010560;28;20460;-60
2022/04/27 07:45:16;;;;;;;31.33;11.33;;;27.00;1.60;;;;;;5011740;28;20460;-60
2022/04/27 07:47:44;;;;;;;32.43;11.87;;;25.70;2.00;;;;;;5014563;28;20688;-60
2022/04/27 07:50:14;;;;;;;33.30;11.80;;;24.60;3.70;;;;;;5005568;28;20463;-60
2022/04/27 07:52:41;;;;;;;33.20;12.40;;;23.80;4.80;;;;;;5008763;28;20503;-60
2022/04/27 07:55:09;;;;;;;32.20;11.13;;;23.20;5.90;;;;;;5010553;28;20463;-60
2022/04/27 07:57:36;;;;;;;35.90;12.17;;;22.90;7.40;;;;;;5012706;28;20483;-60
2022/04/27 08:00:06;;;;;;;33.70;11.00;;;22.80;7.60;;;;;;5008333;28;20464;-60
2022/04/27 08:02:33;;;;;;;34.13;11.67;;;22.60;7.60;;;;;;5010514;28;20470;-59
2022/04/27 08:05:01;;;;;;;34.17;12.20;;;22.50;8.20;;;;;;5010756;28;20475;-60
2022/04/27 08:07:36;;;;;;;33.60;11.50;;;22.30;8.60;;;;;;5024738;28;20467;-60
2022/04/27 08:10:12;;;;;;;33.50;11.27;;;22.00;8.60;;;;;;5005959;28;20479;-60
2022/04/27 08:12:40;;;;;;;34.80;12.67;;;21.50;8.70;;;;;;5005221;28;20464;-60
2022/04/27 08:15:08;;;;;;;35.00;11.23;;;20.90;9.20;;;;;;5009561;28;20499;-60
2022/04/27 08:17:35;;;;;;;35.00;12.40;;;20.40;10.70;;;;;;5009656;28;20460;-60
2022/04/27 08:22:47;;;;;;;34.80;12.30;;;19.80;12.00;;;;;;5005406;28;20451;-59
2022/04/27 08:25:14;;;;;;;34.17;11.77;;;19.40;12.70;;;;;;5011480;28;20456;-60
2022/04/27 08:27:41;;;;;;;34.80;11.87;;;19.10;13.10;;;;;;5008654;28;20463;-60
2022/04/27 08:30:09;;;;;;;37.80;11.30;;;18.80;13.30;;;;;;5009923;28;20484;-60
2022/04/27 08:32:35;;;;;;;35.83;11.73;;;18.60;13.70;;;;;;5007943;28;21017;-59
2022/04/27 08:35:02;;;;;;;33.50;10.60;;;18.70;14.30;;;;;;5006726;28;20463;-59
2022/04/27 08:37:29;;;;;;;32.93;9.70;;;20.90;12.40;;;;;;5007622;28;20464;-59
2022/04/27 08:39:58;;;;;;;33.43;7.97;;;21.30;10.20;;;;;;5009426;28;20456;-60
2022/04/27 08:42:25;;;;;;;32.00;9.90;;;21.10;10.10;;;;;;5006723;28;20467;-60
2022/04/27 08:44:52;;;;;;;32.90;10.30;;;20.90;10.00;;;;;;5007943;28;20471;-60
2022/04/27 08:47:19;;;;;;;33.27;10.50;;;20.50;10.20;;;;;;5014782;28;20837;-60
2022/04/27 08:49:45;;;;;;;32.37;9.67;;;20.10;10.90;;;;;;5018399;28;20483;-60
2022/04/27 08:52:12;;;;;;;34.07;11.00;;;19.80;11.40;;;;;;5007635;28;20460;-60
2022/04/27 08:54:39;;;;;;;33.43;10.27;;;19.70;11.70;;;;;;5003942;28;20973;-60
2022/04/27 08:57:08;;;;;;;33.00;9.70;;;19.60;12.10;;;;;;5009396;28;20464;-60
2022/04/27 08:59:35;;;;;;;32.20;9.33;;;19.60;12.60;;;;;;5006777;28;20566;-60
2022/04/27 09:02:23;;;;;;;35.43;10.80;;;19.50;12.40;;;;;;5007902;28;20502;-59
2022/04/27 09:05:06;;;;;;;33.00;8.90;;;19.40;12.30;;;;;;4996596;28;20460;-60
2022/04/27 09:07:36;;;;;;;30.67;7.23;;;19.20;12.50;;;;;;5010375;28;20451;-60
2022/04/27 09:10:04;;;;;;;31.30;7.73;;;19.20;12.70;;;;;;5019376;28;20554;-59
2022/04/27 09:12:32;;;;;;;31.47;7.57;;;19.10;12.30;;;;;;5014519;28;20468;-61
2022/04/27 09:15:04;;;;;;;30.80;7.80;;;19.10;11.60;;;;;;5008611;28;20456;-60
2022/04/27 09:23:01;;;;;;;29.77;6.70;;;19.90;9.40;;;;;;5005618;28;20482;-60
2022/04/27 09:25:32;;;;;;;31.17;7.60;;;20.70;10.60;;;;;;5009496;28;20499;-60
2022/04/27 09:28:03;;;;;;;29.73;6.80;;;24.60;6.50;;;;;;5012955;28;20488;-60
2022/04/27 09:30:31;;;;;;;29.50;7.27;;;29.20;1.00;;;;;;5007982;28;20455;-61
2022/04/27 09:32:58;;;;;;;27.20;5.97;;;31.30;1.00;;;;;;5014247;28;20456;-61
2022/04/27 09:35:34;;;;;;;28.00;7.07;;;31.00;1.00;;;;;;5004766;28;20980;-60
2022/04/27 09:38:15;;;;;;;30.20;7.17;;;29.50;1.00;;;;;;5007577;28;20475;-60
2022/04/27 09:40:46;;;;;;;28.53;6.80;;;27.80;1.00;;;;;;5016171;28;20458;-61
2022/04/27 09:43:42;;;;;;;28.17;6.87;;;26.40;1.00;;;;;;5158385;27;20657;-61
2022/04/27 09:46:17;;;;;;;28.70;7.10;;;25.20;1.60;;;;;;5139714;27;21047;-60
2022/04/27 09:48:46;;;;;;;29.60;7.30;;;24.40;2.90;;;;;;5137724;27;20810;-61
2022/04/27 09:51:14;;;;;;;30.17;8.23;;;23.90;3.30;;;;;;5133354;27;20555;-60
2022/04/27 09:53:42;;;;;;;31.90;9.03;;;23.70;3.80;;;;;;5145033;27;20834;-60
2022/04/27 09:56:11;;;;;;;30.30;7.73;;;23.80;4.30;;;;;;5138400;27;20545;-61
2022/04/27 09:58:45;;;;;;;29.77;7.10;;;23.80;4.70;;;;;;5137679;27;21005;-61
2022/04/27 10:01:14;;;;;;;30.47;8.13;;;23.40;4.60;;;;;;5128731;27;20560;-60
2022/04/27 10:03:47;;;;;;;30.73;8.17;;;23.00;5.50;;;;;;5117902;28;20467;-60
2022/04/27 10:06:15;;;;;;;31.20;8.57;;;22.60;6.30;;;;;;5116325;27;20475;-61
2022/04/27 10:08:42;;;;;;;31.40;8.43;;;22.20;6.40;;;;;;5113320;28;20501;-60
2022/04/27 10:11:12;;;;;;;30.47;7.33;;;21.90;7.50;;;;;;5116990;28;20963;-60
2022/04/27 10:13:40;;;;;;;32.63;9.10;;;21.40;7.40;;;;;;5115701;28;20454;-60
2022/04/27 10:16:08;;;;;;;31.77;8.10;;;21.00;8.60;;;;;;5118505;27;20465;-60
2022/04/27 10:18:35;;;;;;;31.90;9.03;;;20.60;9.30;;;;;;5124346;28;20478;-60
2022/04/27 10:21:04;;;;;;;32.40;8.73;;;20.40;10.10;;;;;;5119700;27;20450;-60
2022/04/27 10:23:32;;;;;;;32.37;8.73;;;20.00;10.30;;;;;;5123148;28;20450;-59
2022/04/27 10:26:15;;;;;;;32.33;8.13;;;19.80;11.30;;;;;;5115216;28;20511;-61
2022/04/27 10:28:45;;;;;;;32.07;7.83;;;19.60;12.10;;;;;;5116904;28;20490;-60
2022/04/27 10:31:14;;;;;;;33.47;8.63;;;19.40;12.20;;;;;;5116357;27;20466;-60
2022/04/27 10:33:42;;;;;;;31.30;8.20;;;19.30;12.20;;;;;;5121172;27;20470;-60
2022/04/27 10:36:38;;;;;;;31.73;7.90;;;19.10;12.60;;;;;;5116984;28;20463;-62
2022/04/27 10:39:19;;;;;;;32.87;7.83;;;18.90;12.80;;;;;;5119935;27;20478;-60
2022/04/27 10:42:18;;;;;;;31.37;7.47;;;18.80;13.30;;;;;;5114626;28;20478;-60
2022/04/27 10:45:21;;;;;;;31.53;7.50;;;18.70;13.20;;;;;;5120790;28;20459;-61
2022/04/27 10:47:49;;;;;;;31.13;6.90;;;18.60;13.40;;;;;;5116983;28;20481;-60
2022/04/27 10:50:34;;;;;;;30.10;6.20;;;18.50;12.70;;;;;;5122391;28;20461;-60
2022/04/27 10:53:21;;;;;;;31.30;7.30;;;18.40;13.10;;;;;;5113758;28;21129;-60
2022/04/27 10:55:53;;;;;;;31.23;6.87;;;18.30;13.70;;;;;;5105565;28;20459;-60
2022/04/27 10:58:30;;;;;;;32.00;7.30;;;18.20;13.70;;;;;;5099868;28;20476;-60
2022/04/27 11:01:24;;;;;;;31.13;6.67;;;18.10;14.00;;;;;;5106340;28;20465;-60
2022/04/27 11:04:01;;;;;;;30.80;6.87;;;18.10;14.40;;;;;;5101984;28;20822;-60
2022/04/27 11:06:30;;;;;;;30.50;6.20;;;18.00;14.50;;;;;;5100217;28;20460;-60
2022/04/27 11:09:13;;;;;;;31.43;6.50;;;18.00;14.50;;;;;;5108338;28;20485;-60
2022/04/27 11:11:52;;;;;;;31.20;6.27;;;18.00;14.60;;;;;;5103347;28;20459;-61
2022/04/27 11:14:21;;;;;;;28.63;4.70;;;18.10;14.40;;;;;;5109894;28;20472;-61
2022/04/27 11:16:49;;;;;;;29.80;5.63;;;18.20;14.00;;;;;;5099631;28;20516;-60
2022/04/27 11:19:18;;;;;;;29.30;5.13;;;18.30;13.70;;;;;;5103464;28;21066;-60
2022/04/27 11:21:46;;;;;;;30.23;6.17;;;18.40;13.60;;;;;;5109247;28;20478;-60
2022/04/27 11:24:15;;;;;;;30.50;5.80;;;18.50;13.70;;;;;;5107035;27;20952;-60
2022/04/27 11:26:43;;;;;;;29.80;5.77;;;18.70;13.30;;;;;;5099768;28;20486;-60
2022/04/27 11:29:12;;;;;;;29.47;5.40;;;18.80;12.60;;;;;;5103515;28;20490;-60
2022/04/27 11:31:39;;;;;;;29.80;6.27;;;19.00;12.50;;;;;;5102934;28;20525;-61
2022/04/27 11:36:58;;;;;;;29.50;5.50;;;19.20;11.80;;;;;;5161960;27;20292;-60
2022/04/27 11:39:26;;;;;;;29.10;5.73;;;19.70;12.10;;;;;;5138500;27;20466;-60
2022/04/27 11:41:59;;;;;;;28.80;4.90;;;19.90;11.40;;;;;;5140872;27;20454;-60
2022/04/27 11:44:27;;;;;;;29.77;6.23;;;20.00;11.70;;;;;;5145372;27;20446;-60
2022/04/27 11:46:55;;;;;;;30.30;6.00;;;20.10;11.10;;;;;;5135717;27;20447;-60
2022/04/27 11:49:23;;;;;;;31.90;6.07;;;20.20;11.20;;;;;;5137282;27;20476;-61
2022/04/27 11:51:50;;;;;;;29.10;6.07;;;20.20;11.50;;;;;;5141318;27;20956;-60
2022/04/27 11:54:30;;;;;;;29.60;6.17;;;20.20;11.30;;;;;;5142105;27;20985;-60
2022/04/27 11:56:59;;;;;;;30.57;7.23;;;20.10;12.00;;;;;;5142326;27;20576;-60
2022/04/27 11:59:26;;;;;;;28.50;6.27;;;20.20;12.50;;;;;;5134504;27;20539;-60
2022/04/27 12:01:54;;;;;;;28.20;5.30;;;20.30;12.50;;;;;;5120915;27;20478;-60
2022/04/27 12:04:20;;;;;;;31.40;5.27;;;20.20;12.40;;;;;;5117280;28;20451;-60
2022/04/27 12:06:47;;;;;;;28.90;5.80;;;20.30;12.50;;;;;;5119590;28;20456;-60
2022/04/27 12:09:17;;;;;;;28.70;5.40;;;20.30;11.70;;;;;;5112413;28;20478;-60
2022/04/27 12:11:46;;;;;;;28.87;5.37;;;20.20;11.60;;;;;;5119740;28;21131;-60
2022/04/27 12:14:17;;;;;;;28.83;5.30;;;20.20;11.20;;;;;;5117684;28;20467;-60
2022/04/27 12:16:43;;;;;;;30.17;4.73;;;20.00;8.60;;;;;;5111832;28;20479;-60
2022/04/27 12:19:10;;;;;;;28.70;5.10;;;19.70;9.20;;;;;;5110671;28;20481;-60
2022/04/27 12:21:37;;;;;;;29.23;5.43;;;19.70;9.60;;;;;;5122024;28;20994;-60
2022/04/27 12:24:16;;;;;;;28.63;4.70;;;19.80;9.50;;;;;;5106983;27;20488;-60
2022/04/27 12:26:42;;;;;;;28.23;4.20;;;19.80;8.80;;;;;;5107760;28;20455;-60
2022/04/27 12:29:11;;;;;;;29.10;5.60;;;19.80;8.90;;;;;;5117417;28;20493;-60
2022/04/27 12:31:38;;;;;;;28.70;5.60;;;19.70;9.80;;;;;;5106801;28;20474;-60
2022/04/27 12:37:29;;;;;;;28.70;5.60;;;19.60;10.50;;;;;;5121163;28;20455;-60
2022/04/27 12:39:39;;;;;;;28.90;4.47;;;19.40;9.40;;;;;;5113868;28;20461;-60
2022/04/27 12:42:09;;;;;;;29.30;4.30;;;19.30;9.50;;;;;;5111997;28;20517;-60
2022/04/27 12:44:40;;;;;;;28.00;3.83;;;19.10;8.10;;;;;;5109543;28;20463;-60
2022/04/27 12:47:08;;;;;;;28.80;4.17;;;18.80;8.80;;;;;;5106609;28;20454;-60
2022/04/27 12:49:37;;;;;;;28.73;4.80;;;18.50;10.00;;;;;;5104302;28;20494;-60
2022/04/27 12:52:17;;;;;;;30.03;4.23;;;18.20;10.90;;;;;;5100738;28;20459;-60
2022/04/27 12:54:45;;;;;;;29.07;4.60;;;17.90;12.00;;;;;;5101269;28;20995;-60
2022/04/27 12:57:13;;;;;;;29.07;4.57;;;17.60;12.20;;;;;;5104129;28;20486;-61
2022/04/27 12:59:58;;;;;;;29.70;4.80;;;17.30;12.60;;;;;;5098146;28;21061;-61
2022/04/27 13:02:26;;;;;;;30.50;4.80;;;17.20;13.20;;;;;;5100564;28;20472;-61
2022/04/27 13:04:54;;;;;;;33.30;4.53;;;17.10;13.60;;;;;;5104421;28;20804;-61
2022/04/27 13:07:21;;;;;;;29.37;4.57;;;17.30;13.90;;;;;;5090630;28;20448;-61
2022/04/27 13:12:33;;;;;;;29.93;5.90;;;17.40;13.70;;;;;;5097950;28;21108;-61
2022/04/27 13:15:02;;;;;;;30.00;5.30;;;17.40;13.50;;;;;;5091051;28;20458;-62